Time;durP1;ratioP1;P1;durP2;ratioP2;P2;SDS_P1;SDS_P2;PMS_P1;PMS_P2;Temp;Humidity;BMP_temperature;BMP_pressure;BME280_temperature;BME280_humidity;BME280_pressure;Samples;Min_cycle;Max_cycle;Signal;HPM_P1;HPM_P2
2023/07/29 00:01:44;;;;;;;1.20;1.10;;;24.40;99.20;;;;;;4935594;29;20537;-86
2023/07/29 00:04:10;;;;;;;1.10;0.90;;;24.40;99.30;;;;;;4935756;29;20444;-88
2023/07/29 00:06:37;;;;;;;1.27;1.07;;;24.40;99.50;;;;;;4935741;29;20460;-88
2023/07/29 00:09:04;;;;;;;1.53;1.10;;;24.40;99.20;;;;;;4935666;29;20438;-83
2023/07/29 00:11:33;;;;;;;1.10;0.87;;;24.40;99.00;;;;;;4939431;29;20508;-88
2023/07/29 00:14:00;;;;;;;1.20;1.00;;;24.40;98.90;;;;;;4939530;29;20456;-87
2023/07/29 00:16:28;;;;;;;1.20;1.00;;;24.40;99.10;;;;;;4939341;29;20486;-87
2023/07/29 00:18:55;;;;;;;1.30;1.10;;;24.40;99.10;;;;;;4939136;29;20462;-86
2023/07/29 00:21:22;;;;;;;1.00;0.80;;;24.40;99.20;;;;;;4938966;29;20465;-83
2023/07/29 00:23:49;;;;;;;1.37;0.90;;;24.40;99.10;;;;;;4939159;29;20470;-85
2023/07/29 00:26:15;;;;;;;1.10;0.90;;;24.40;99.20;;;;;;4939430;29;20449;-87
2023/07/29 00:28:42;;;;;;;1.30;1.20;;;24.40;99.20;;;;;;4939353;29;20442;-83
2023/07/29 00:31:09;;;;;;;1.50;0.90;;;24.40;99.10;;;;;;4939077;29;20472;-84
2023/07/29 00:33:39;;;;;;;1.00;0.80;;;24.40;99.10;;;;;;4942295;29;20479;-81
2023/07/29 00:36:07;;;;;;;1.10;0.80;;;24.40;99.30;;;;;;4939249;29;20483;-84
2023/07/29 00:38:33;;;;;;;1.20;1.10;;;24.40;99.20;;;;;;4939361;29;20443;-84
2023/07/29 00:41:03;;;;;;;1.30;1.17;;;24.40;99.20;;;;;;4923393;29;20452;-84
2023/07/29 00:43:29;;;;;;;1.10;1.00;;;24.40;99.20;;;;;;4939033;29;20442;-87
2023/07/29 00:45:57;;;;;;;1.10;0.90;;;24.40;99.20;;;;;;4938547;29;20451;-88
2023/07/29 00:48:24;;;;;;;1.10;0.90;;;24.40;99.10;;;;;;4938859;29;20535;-88
2023/07/29 00:50:53;;;;;;;1.20;0.87;;;24.40;99.10;;;;;;4938818;29;20951;-87
2023/07/29 00:53:19;;;;;;;1.10;1.00;;;24.40;99.20;;;;;;4938587;29;20485;-85
2023/07/29 00:55:46;;;;;;;1.20;1.00;;;24.40;99.20;;;;;;4938796;29;20446;-85
2023/07/29 00:58:13;;;;;;;1.00;0.80;;;24.40;99.20;;;;;;4938913;29;20490;-88
2023/07/29 01:00:40;;;;;;;1.30;1.20;;;24.40;99.20;;;;;;4938789;29;20457;-87
2023/07/29 01:03:07;;;;;;;1.10;0.90;;;24.40;99.20;;;;;;4938621;29;20458;-88
2023/07/29 01:05:41;;;;;;;1.13;1.03;;;24.40;99.10;;;;;;4938159;29;20453;-85
2023/07/29 01:08:18;;;;;;;1.10;1.00;;;24.40;99.10;;;;;;4935716;29;20459;-88
2023/07/29 01:10:53;;;;;;;1.50;1.20;;;24.40;99.10;;;;;;4938642;29;20458;-88
2023/07/29 01:13:24;;;;;;;1.17;1.07;;;24.40;99.10;;;;;;4926424;29;20439;-86
2023/07/29 01:15:56;;;;;;;1.10;0.93;;;24.40;99.10;;;;;;4938848;29;20467;-87
2023/07/29 01:18:25;;;;;;;1.10;0.90;;;24.40;99.10;;;;;;4938759;29;20457;-89
2023/07/29 01:20:55;;;;;;;1.20;1.00;;;24.40;99.20;;;;;;4937654;29;20444;-88
2023/07/29 01:23:26;;;;;;;1.20;0.97;;;24.40;99.10;;;;;;4937904;29;20460;-85
2023/07/29 01:25:53;;;;;;;1.10;0.90;;;24.40;99.10;;;;;;4938561;29;20464;-88
2023/07/29 01:28:20;;;;;;;1.10;1.00;;;24.40;99.10;;;;;;4937961;29;20967;-88
2023/07/29 01:30:50;;;;;;;1.30;1.00;;;24.40;99.30;;;;;;4938557;29;20456;-87
2023/07/29 01:33:21;;;;;;;1.20;1.10;;;24.40;98.90;;;;;;4937994;29;20444;-88
2023/07/29 01:35:51;;;;;;;1.20;1.00;;;24.40;99.10;;;;;;4937954;29;20456;-88
2023/07/29 01:38:20;;;;;;;1.10;0.90;;;24.40;99.50;;;;;;4937501;29;20487;-89
2023/07/29 01:40:51;;;;;;;1.13;1.00;;;24.40;99.10;;;;;;4938184;29;20508;-88
2023/07/29 01:43:18;;;;;;;1.00;0.80;;;24.40;99.20;;;;;;4938169;29;20450;-88
2023/07/29 01:45:46;;;;;;;1.33;1.07;;;24.40;99.10;;;;;;4937747;29;21008;-82
2023/07/29 01:48:12;;;;;;;1.10;1.00;;;24.40;99.10;;;;;;4937826;29;20462;-87
2023/07/29 01:50:39;;;;;;;1.20;0.90;;;24.40;99.10;;;;;;4938169;29;20457;-88
2023/07/29 01:53:06;;;;;;;1.13;0.90;;;24.40;99.00;;;;;;4937574;29;20935;-88
2023/07/29 01:55:33;;;;;;;1.00;0.90;;;24.40;99.10;;;;;;4937646;29;20947;-88
2023/07/29 01:58:01;;;;;;;1.40;1.00;;;24.40;99.00;;;;;;4937745;29;20585;-88
2023/07/29 02:00:28;;;;;;;1.17;1.07;;;24.40;99.00;;;;;;4937598;29;20447;-87
2023/07/29 02:02:55;;;;;;;1.13;1.03;;;24.40;99.00;;;;;;4937698;29;20459;-83
2023/07/29 02:05:21;;;;;;;1.10;1.00;;;24.40;99.00;;;;;;4918645;29;20455;-88
2023/07/29 02:07:48;;;;;;;1.10;0.90;;;24.40;99.00;;;;;;4925399;29;20841;-88
2023/07/29 02:10:15;;;;;;;1.63;1.53;;;24.30;99.00;;;;;;4937200;29;20447;-85
2023/07/29 02:12:42;;;;;;;1.20;1.10;;;24.40;99.00;;;;;;4937455;29;20484;-87
2023/07/29 02:15:11;;;;;;;1.10;0.90;;;24.40;99.00;;;;;;4937481;29;20437;-88
2023/07/29 02:17:38;;;;;;;1.00;0.83;;;24.40;99.00;;;;;;4937296;29;20487;-87
2023/07/29 02:20:05;;;;;;;1.40;1.30;;;24.30;99.10;;;;;;4937485;29;20776;-88
2023/07/29 02:22:32;;;;;;;1.17;1.07;;;24.30;99.20;;;;;;4936619;29;20468;-85
2023/07/29 02:24:59;;;;;;;1.20;1.10;;;24.40;99.10;;;;;;4937071;29;20485;-88
2023/07/29 02:27:26;;;;;;;1.27;1.13;;;24.30;99.10;;;;;;4937156;29;20863;-87
2023/07/29 02:29:53;;;;;;;1.10;1.00;;;24.40;99.20;;;;;;4936808;29;20443;-88
2023/07/29 02:32:22;;;;;;;1.13;1.03;;;24.30;98.90;;;;;;4936588;29;20503;-88
2023/07/29 02:34:49;;;;;;;1.03;0.93;;;24.40;98.90;;;;;;4936941;29;20482;-88
2023/07/29 02:37:16;;;;;;;1.20;1.00;;;24.40;99.10;;;;;;4936811;29;20484;-88
2023/07/29 02:39:43;;;;;;;2.23;1.00;;;24.30;99.10;;;;;;4937087;29;20452;-89
2023/07/29 02:42:10;;;;;;;1.10;0.90;;;24.30;99.10;;;;;;4936389;29;20459;-88
2023/07/29 02:44:36;;;;;;;1.10;0.87;;;24.30;99.00;;;;;;4936940;29;20444;-86
2023/07/29 02:47:03;;;;;;;1.50;1.10;;;24.30;99.00;;;;;;4936702;29;20452;-88
2023/07/29 02:49:32;;;;;;;1.20;0.93;;;24.40;99.00;;;;;;4937002;29;20798;-88
2023/07/29 02:51:58;;;;;;;1.03;0.90;;;24.40;99.00;;;;;;4936192;29;20472;-88
2023/07/29 02:54:25;;;;;;;1.13;1.03;;;24.30;98.90;;;;;;4936871;29;20443;-88
2023/07/29 02:56:52;;;;;;;1.20;1.07;;;24.30;99.10;;;;;;4936960;29;20826;-89
2023/07/29 02:59:19;;;;;;;1.00;0.80;;;24.40;99.10;;;;;;4936363;29;20947;-87
2023/07/29 03:01:46;;;;;;;1.07;0.80;;;24.30;99.10;;;;;;4936667;29;20889;-88
2023/07/29 03:04:13;;;;;;;1.30;1.00;;;24.30;99.10;;;;;;4936403;29;20455;-88
2023/07/29 03:06:42;;;;;;;1.20;0.87;;;24.40;99.10;;;;;;4936630;29;20504;-88
2023/07/29 03:09:09;;;;;;;1.10;0.87;;;24.30;99.00;;;;;;4936315;29;20971;-87
2023/07/29 03:11:36;;;;;;;1.30;1.07;;;24.30;99.00;;;;;;4936304;29;20500;-85
2023/07/29 03:14:03;;;;;;;1.13;1.00;;;24.30;99.10;;;;;;4936635;29;20452;-88
2023/07/29 03:16:29;;;;;;;1.10;0.90;;;24.30;99.30;;;;;;4936321;29;20455;-88
2023/07/29 03:18:57;;;;;;;1.20;1.00;;;24.30;99.10;;;;;;4936280;29;20486;-89
2023/07/29 03:21:24;;;;;;;1.20;1.10;;;24.30;99.10;;;;;;4936235;29;20476;-88
2023/07/29 03:23:52;;;;;;;1.50;1.00;;;24.30;99.10;;;;;;4936065;29;20451;-85
2023/07/29 03:26:19;;;;;;;1.10;1.00;;;24.30;99.10;;;;;;4936393;29;20506;-88
2023/07/29 03:28:46;;;;;;;1.00;0.70;;;24.30;99.10;;;;;;4935575;29;20452;-85
2023/07/29 03:31:13;;;;;;;1.17;1.00;;;24.30;99.00;;;;;;4936362;29;20452;-88
2023/07/29 03:33:40;;;;;;;1.20;0.90;;;24.30;99.10;;;;;;4936254;29;21037;-87
2023/07/29 03:36:06;;;;;;;1.13;1.00;;;24.30;99.10;;;;;;4936130;29;20444;-88
2023/07/29 03:38:35;;;;;;;1.10;0.90;;;24.40;99.10;;;;;;4935499;29;20487;-87
2023/07/29 03:41:03;;;;;;;1.10;0.80;;;24.30;99.10;;;;;;4935987;29;20466;-85
2023/07/29 03:43:30;;;;;;;1.67;1.10;;;24.30;99.00;;;;;;4936112;29;20448;-86
2023/07/29 03:45:56;;;;;;;1.00;0.80;;;24.30;99.00;;;;;;4935700;29;20445;-88
2023/07/29 03:48:23;;;;;;;1.10;0.90;;;24.30;99.00;;;;;;4935957;29;20446;-83
2023/07/29 03:50:53;;;;;;;1.17;1.00;;;24.30;99.10;;;;;;4935899;29;21025;-87
2023/07/29 03:53:21;;;;;;;1.10;0.90;;;24.30;99.20;;;;;;4935981;29;20450;-88
2023/07/29 03:55:49;;;;;;;1.17;1.00;;;24.30;99.10;;;;;;4936118;29;20465;-87
2023/07/29 03:58:18;;;;;;;1.10;0.90;;;24.30;98.80;;;;;;4935827;29;20850;-86
2023/07/29 04:00:44;;;;;;;1.10;0.90;;;24.30;98.80;;;;;;4935590;29;20449;-87
2023/07/29 04:03:11;;;;;;;1.00;0.80;;;24.30;98.80;;;;;;4935777;29;20448;-83
2023/07/29 04:05:38;;;;;;;1.10;1.00;;;24.30;98.80;;;;;;4935923;29;20530;-88
2023/07/29 04:08:05;;;;;;;1.10;1.00;;;24.30;98.70;;;;;;4935445;29;20448;-83
2023/07/29 04:10:32;;;;;;;1.20;0.80;;;24.30;98.70;;;;;;4935543;29;20443;-88
2023/07/29 04:12:59;;;;;;;1.10;0.90;;;24.30;98.80;;;;;;4935500;29;20449;-86
2023/07/29 04:15:27;;;;;;;1.17;1.00;;;24.30;98.90;;;;;;4935655;29;20448;-84
2023/07/29 04:17:53;;;;;;;1.10;1.00;;;24.30;98.90;;;;;;4935846;29;20474;-86
2023/07/29 04:20:20;;;;;;;1.00;0.80;;;24.30;98.90;;;;;;4953448;28;20992;-82
2023/07/29 04:22:47;;;;;;;1.30;0.90;;;24.30;98.90;;;;;;4958067;29;20450;-88
2023/07/29 04:25:14;;;;;;;1.00;0.80;;;24.30;98.90;;;;;;4938063;29;20451;-87
2023/07/29 04:27:41;;;;;;;1.10;0.90;;;24.30;98.90;;;;;;4935809;29;20451;-88
2023/07/29 04:30:09;;;;;;;1.30;1.10;;;24.30;98.90;;;;;;4935797;29;20450;-82
2023/07/29 04:32:37;;;;;;;1.10;0.90;;;24.30;98.80;;;;;;4916939;29;20448;-88
2023/07/29 04:35:04;;;;;;;1.23;0.80;;;24.30;98.90;;;;;;4932860;29;20556;-87
2023/07/29 04:37:31;;;;;;;1.00;0.83;;;24.30;99.00;;;;;;4935675;29;20503;-87
2023/07/29 04:39:58;;;;;;;1.10;0.80;;;24.30;98.90;;;;;;4935389;29;20443;-87
2023/07/29 04:42:25;;;;;;;1.20;1.10;;;24.30;98.90;;;;;;4935477;29;20451;-86
2023/07/29 04:44:51;;;;;;;1.10;0.90;;;24.30;98.80;;;;;;4935152;29;20969;-83
2023/07/29 04:47:18;;;;;;;1.13;1.03;;;24.30;98.80;;;;;;4935516;29;20459;-84
2023/07/29 04:49:46;;;;;;;1.20;1.10;;;24.30;98.80;;;;;;4935290;29;20485;-86
2023/07/29 04:52:14;;;;;;;1.23;1.00;;;24.30;98.90;;;;;;4935915;29;20798;-87
2023/07/29 04:54:41;;;;;;;1.37;1.00;;;24.30;98.70;;;;;;4935642;29;20443;-85
2023/07/29 04:57:08;;;;;;;1.03;0.80;;;24.30;98.80;;;;;;4937197;29;20438;-86
2023/07/29 04:59:36;;;;;;;1.10;0.90;;;24.30;98.90;;;;;;4938694;29;20454;-84
2023/07/29 05:02:03;;;;;;;1.10;0.90;;;24.30;98.80;;;;;;4939779;29;20448;-82
2023/07/29 05:04:29;;;;;;;1.10;0.90;;;24.30;98.80;;;;;;4949795;29;20502;-82
2023/07/29 05:06:57;;;;;;;1.07;0.93;;;24.30;98.80;;;;;;4938861;29;20454;-88
2023/07/29 05:09:25;;;;;;;1.13;0.90;;;24.30;98.70;;;;;;4938603;29;20490;-88
2023/07/29 05:11:52;;;;;;;1.30;1.10;;;24.30;98.80;;;;;;4938332;29;20505;-88
2023/07/29 05:14:19;;;;;;;1.10;0.97;;;24.40;98.90;;;;;;4938509;29;20517;-86
2023/07/29 05:16:46;;;;;;;8.60;1.40;;;24.30;98.80;;;;;;4938310;29;20463;-88
2023/07/29 05:19:12;;;;;;;1.57;1.23;;;24.30;98.80;;;;;;4938504;29;20494;-88
2023/07/29 05:21:40;;;;;;;2.43;1.37;;;24.40;99.30;;;;;;4938535;29;20453;-87
2023/07/29 05:24:08;;;;;;;2.53;2.33;;;24.30;99.20;;;;;;4938727;29;20446;-86
2023/07/29 05:26:35;;;;;;;2.30;2.10;;;24.40;99.90;;;;;;4938523;29;20460;-87
2023/07/29 05:29:02;;;;;;;4.67;2.17;;;24.30;99.90;;;;;;4938514;29;20457;-85
2023/07/29 05:31:28;;;;;;;3.17;2.37;;;24.30;99.90;;;;;;4938037;29;20447;-87
2023/07/29 05:33:55;;;;;;;2.80;2.30;;;24.30;99.90;;;;;;4938013;29;20515;-87
2023/07/29 05:36:22;;;;;;;3.30;2.27;;;24.30;99.90;;;;;;4938250;29;20455;-88
2023/07/29 05:38:49;;;;;;;2.20;2.00;;;24.30;99.90;;;;;;4938161;29;20479;-86
2023/07/29 05:41:17;;;;;;;1.80;1.60;;;24.30;99.90;;;;;;4938174;29;20530;-87
2023/07/29 05:43:45;;;;;;;6.27;1.63;;;24.30;99.90;;;;;;4938163;29;20443;-88
2023/07/29 05:46:11;;;;;;;2.47;1.40;;;24.30;99.80;;;;;;4938029;29;20512;-85
2023/07/29 05:48:38;;;;;;;1.83;1.50;;;24.30;99.70;;;;;;4938072;29;20449;-88
2023/07/29 05:51:06;;;;;;;1.90;1.50;;;24.30;99.60;;;;;;4937917;29;20468;-85
2023/07/29 05:53:32;;;;;;;3.20;1.50;;;24.30;99.50;;;;;;4937550;29;20508;-87
2023/07/29 05:55:59;;;;;;;3.07;2.07;;;24.30;99.60;;;;;;4937468;29;20449;-84
2023/07/29 05:58:27;;;;;;;2.37;2.17;;;24.30;99.70;;;;;;4937876;29;20496;-88
2023/07/29 06:00:54;;;;;;;4.27;3.30;;;24.30;99.70;;;;;;4937445;29;20444;-82
2023/07/29 06:03:21;;;;;;;4.47;4.07;;;24.30;99.90;;;;;;4937496;29;21024;-89
2023/07/29 06:05:49;;;;;;;5.00;3.80;;;24.50;99.90;;;;;;4936139;29;20932;-83
2023/07/29 06:08:18;;;;;;;6.80;3.77;;;24.30;99.90;;;;;;4929717;29;20456;-88
2023/07/29 06:10:44;;;;;;;5.33;4.10;;;24.30;99.90;;;;;;4937241;29;20475;-86
2023/07/29 06:13:11;;;;;;;4.13;3.80;;;24.30;99.90;;;;;;4937490;29;20455;-85
2023/07/29 06:15:39;;;;;;;4.37;3.97;;;24.30;99.90;;;;;;4936873;29;20998;-88
2023/07/29 06:18:06;;;;;;;4.20;3.90;;;24.30;99.90;;;;;;4937040;29;20507;-85
2023/07/29 06:20:33;;;;;;;3.90;3.60;;;24.30;99.90;;;;;;4937214;29;20480;-82
2023/07/29 06:23:00;;;;;;;8.90;3.80;;;24.30;99.90;;;;;;4937272;29;20471;-88
2023/07/29 06:25:27;;;;;;;3.83;3.53;;;24.20;99.90;;;;;;4937239;29;20448;-85
2023/07/29 06:27:53;;;;;;;4.00;3.60;;;24.30;99.90;;;;;;4937506;29;20440;-87
2023/07/29 06:30:20;;;;;;;3.33;3.03;;;24.20;99.90;;;;;;4936952;29;20549;-86
2023/07/29 06:32:48;;;;;;;7.33;3.37;;;24.20;99.90;;;;;;4948328;29;20518;-88
2023/07/29 06:35:15;;;;;;;3.30;3.00;;;24.20;99.90;;;;;;4956815;29;21073;-85
2023/07/29 06:37:42;;;;;;;3.20;2.90;;;24.20;99.90;;;;;;4956230;29;20935;-84
2023/07/29 06:40:10;;;;;;;4.30;3.37;;;24.20;99.80;;;;;;4956067;29;20447;-85
2023/07/29 06:42:37;;;;;;;3.43;2.73;;;24.20;99.80;;;;;;4954042;29;20447;-87
2023/07/29 06:45:05;;;;;;;2.73;2.53;;;24.20;99.70;;;;;;4950013;29;20456;-91
